createdAt,value
2019-03-10T00:00:44.842Z,103.35
2019-03-10T00:03:51.680Z,103.44
2019-03-10T00:06:56.995Z,103.71
2019-03-10T00:10:02.341Z,103.91
2019-03-10T00:13:07.632Z,103.62
2019-03-10T00:16:12.980Z,103.52
2019-03-10T00:19:18.325Z,102.23
2019-03-10T00:22:23.683Z,102.18
2019-03-10T00:25:28.991Z,101.54
2019-03-10T00:28:34.280Z,101.76
2019-03-10T00:31:39.575Z,101.40
2019-03-10T00:34:44.773Z,101.20
2019-03-10T00:37:50.144Z,100.87
2019-03-10T00:41:36.420Z,101.00
2019-03-10T00:45:08.766Z,100.59
2019-03-10T00:49:06.114Z,100.82
2019-03-10T00:52:18.091Z,100.59
2019-03-10T00:55:23.401Z,99.88
2019-03-10T00:58:28.669Z,99.36
2019-03-10T01:01:35.502Z,99.43
2019-03-10T01:04:40.816Z,99.04
2019-03-10T01:07:46.102Z,98.51
2019-03-10T01:10:51.967Z,98.56
2019-03-10T01:13:57.248Z,99.82
2019-03-10T01:17:04.115Z,99.34
2019-03-10T01:20:10.285Z,97.69
2019-03-10T01:23:15.567Z,97.19
2019-03-10T01:26:20.914Z,96.63
2019-03-10T01:29:26.125Z,97.86
2019-03-10T01:32:49.112Z,98.21
2019-03-10T01:35:54.367Z,97.88
2019-03-10T01:38:59.591Z,96.98
2019-03-10T01:42:04.890Z,98.11
2019-03-10T01:45:11.881Z,97.78
2019-03-10T01:48:17.178Z,97.28
2019-03-10T01:51:22.482Z,97.02
2019-03-10T01:54:29.360Z,96.94
2019-03-10T01:57:36.281Z,95.47
2019-03-10T02:00:41.558Z,96.33
2019-03-10T02:03:46.864Z,95.99
2019-03-10T02:06:52.110Z,95.97
2019-03-10T02:09:57.382Z,97.05
2019-03-10T02:13:02.624Z,96.63
2019-03-10T02:16:07.905Z,96.33
2019-03-10T02:19:13.185Z,96.61
2019-03-10T02:22:18.476Z,95.06
2019-03-10T02:25:23.721Z,95.95
2019-03-10T02:28:28.930Z,95.57
2019-03-10T02:31:34.194Z,95.59
2019-03-10T02:34:39.602Z,95.47
2019-03-10T02:37:45.127Z,95.43
2019-03-10T02:40:50.446Z,95.22
2019-03-10T02:43:55.776Z,94.66
2019-03-10T02:47:01.155Z,94.99
2019-03-10T02:50:07.200Z,94.44
2019-03-10T02:53:12.490Z,94.15
2019-03-10T02:56:17.723Z,95.07
2019-03-10T02:59:22.990Z,94.95
2019-03-10T03:02:28.234Z,94.91
2019-03-10T03:05:33.515Z,94.08
2019-03-10T03:08:41.287Z,93.55
2019-03-10T03:11:46.667Z,93.96
2019-03-10T03:14:51.954Z,93.93
2019-03-10T03:17:57.228Z,94.61
2019-03-10T03:21:02.472Z,95.16
2019-03-10T03:24:07.782Z,94.68
2019-03-10T03:27:13.028Z,94.99
2019-03-10T03:30:19.037Z,94.90
2019-03-10T03:33:24.385Z,94.41
2019-03-10T03:36:34.933Z,93.56
2019-03-10T03:39:46.427Z,94.35
2019-03-10T03:42:51.932Z,94.41
2019-03-10T03:45:57.313Z,94.38
2019-03-10T03:49:02.605Z,94.73
2019-03-10T03:52:07.944Z,93.65
2019-03-10T03:55:13.214Z,94.19
2019-03-10T03:58:18.558Z,94.58
2019-03-10T04:01:27.473Z,94.47
2019-03-10T04:04:32.875Z,93.94
2019-03-10T04:07:38.173Z,94.40
2019-03-10T04:10:43.514Z,94.44
2019-03-10T04:13:49.663Z,94.82
2019-03-10T04:16:54.932Z,93.99
2019-03-10T04:20:00.465Z,94.03
2019-03-10T04:23:05.783Z,93.58
2019-03-10T04:26:12.534Z,94.22
2019-03-10T04:29:21.589Z,93.66
2019-03-10T04:32:25.975Z,93.93
2019-03-10T04:35:31.269Z,93.38
2019-03-10T04:38:36.531Z,93.80
2019-03-10T04:41:41.752Z,94.09
2019-03-10T04:44:47.034Z,93.17
2019-03-10T04:47:52.311Z,93.12
2019-03-10T04:50:57.531Z,92.58
2019-03-10T04:54:02.882Z,91.77
2019-03-10T04:57:15.334Z,91.69
2019-03-10T05:00:20.633Z,93.09
2019-03-10T05:03:27.054Z,91.68
2019-03-10T05:06:33.887Z,93.16
2019-03-10T05:09:39.153Z,93.03
2019-03-10T05:12:44.444Z,92.55
2019-03-10T05:15:49.665Z,92.51
2019-03-10T05:18:55.089Z,92.28
2019-03-10T05:22:00.431Z,92.14
2019-03-10T05:25:05.728Z,91.42
2019-03-10T05:28:10.980Z,91.73
2019-03-10T05:31:16.273Z,92.13
2019-03-10T05:34:21.545Z,92.48
2019-03-10T05:37:26.846Z,92.00
2019-03-10T05:40:33.104Z,91.93
2019-03-10T05:43:38.434Z,91.29
2019-03-10T05:46:43.721Z,90.95
2019-03-10T05:49:49.123Z,89.94
2019-03-10T05:52:54.416Z,90.19
2019-03-10T05:55:59.720Z,89.76
2019-03-10T05:59:05.024Z,90.73
2019-03-10T06:02:10.300Z,90.19
2019-03-10T06:05:17.110Z,90.86
2019-03-10T06:08:22.364Z,90.38
2019-03-10T06:11:27.634Z,90.18
2019-03-10T06:14:32.869Z,91.26
2019-03-10T06:17:38.140Z,91.86
2019-03-10T06:20:43.385Z,92.64
2019-03-10T06:23:48.659Z,92.76
2019-03-10T06:26:53.887Z,93.74
2019-03-10T06:29:59.118Z,94.81
2019-03-10T06:33:04.475Z,95.44
2019-03-10T06:36:09.749Z,95.76
2019-03-10T06:39:15.059Z,96.57
2019-03-10T06:42:20.396Z,98.11
2019-03-10T06:45:25.685Z,97.96
2019-03-10T06:48:30.962Z,97.95
2019-03-10T06:51:36.316Z,98.60
2019-03-10T06:54:41.545Z,99.06
2019-03-10T06:57:46.894Z,100.08
2019-03-10T07:00:52.165Z,100.43
2019-03-10T07:03:57.538Z,99.99
2019-03-10T07:07:02.831Z,100.85
2019-03-10T07:10:10.173Z,100.17
2019-03-10T07:13:16.693Z,100.03
2019-03-10T07:16:21.956Z,100.07
2019-03-10T07:19:27.283Z,98.78
2019-03-10T07:22:32.539Z,100.18
2019-03-10T07:25:37.822Z,100.31
2019-03-10T07:29:01.975Z,101.19
2019-03-10T07:32:44.230Z,100.70
2019-03-10T07:36:23.275Z,101.90
2019-03-10T07:40:06.036Z,102.04
2019-03-10T07:43:28.846Z,101.95
2019-03-10T07:46:55.614Z,102.26
2019-03-10T07:50:22.823Z,102.84
2019-03-10T07:53:48.175Z,101.08
2019-03-10T07:57:03.654Z,102.08
2019-03-10T08:00:27.373Z,101.51
2019-03-10T08:03:50.440Z,100.27
2019-03-10T08:07:14.647Z,101.62
2019-03-10T08:10:30.378Z,101.33
2019-03-10T08:13:44.440Z,101.01
2019-03-10T08:17:20.963Z,100.71
2019-03-10T08:20:31.963Z,99.94
2019-03-10T08:24:02.206Z,100.83
2019-03-10T08:27:23.160Z,100.09
2019-03-10T08:30:59.719Z,100.94
2019-03-10T08:34:29.957Z,101.70
2019-03-10T08:37:54.220Z,100.68
2019-03-10T08:41:33.753Z,100.57
2019-03-10T08:45:16.134Z,101.49
2019-03-10T08:48:33.038Z,100.39
2019-03-10T08:51:58.430Z,99.53
2019-03-10T08:55:25.595Z,99.38
2019-03-10T08:58:51.555Z,97.82
2019-03-10T09:02:14.523Z,98.81
2019-03-10T09:05:38.700Z,99.48
2019-03-10T09:09:02.881Z,99.44
2019-03-10T09:12:20.762Z,99.46
2019-03-10T09:16:00.279Z,99.18
2019-03-10T09:19:23.035Z,97.50
2019-03-10T09:22:47.317Z,98.56
2019-03-10T09:26:14.556Z,99.72
2019-03-10T09:29:38.879Z,98.53
2019-03-10T09:33:18.264Z,97.82
2019-03-10T09:36:45.483Z,97.17
2019-03-10T09:40:12.525Z,94.64
2019-03-10T09:43:42.745Z,94.16
2019-03-10T09:47:06.075Z,93.41
2019-03-10T09:50:30.997Z,94.51
2019-03-10T09:54:04.300Z,95.73
2019-03-10T09:57:46.597Z,94.28
2019-03-10T10:01:13.463Z,96.36
2019-03-10T10:04:43.594Z,93.09
2019-03-10T10:08:20.234Z,95.30
2019-03-10T10:11:39.538Z,96.57
2019-03-10T10:15:09.823Z,95.42
2019-03-10T10:18:40.814Z,94.20
2019-03-10T10:22:23.398Z,93.41
2019-03-10T10:25:50.933Z,94.86
2019-03-10T10:29:27.374Z,92.76
2019-03-10T10:32:53.505Z,94.89
2019-03-10T10:36:35.898Z,94.80
2019-03-10T10:39:50.794Z,96.26
2019-03-10T10:43:24.189Z,98.01
2019-03-10T10:46:53.643Z,97.12
2019-03-10T10:50:16.596Z,98.11
2019-03-10T10:53:40.837Z,99.13
2019-03-10T10:57:17.396Z,100.15
2019-03-10T11:00:27.629Z,98.11
2019-03-10T11:03:48.471Z,99.01
2019-03-10T11:07:07.968Z,100.58
2019-03-10T11:10:35.165Z,100.45
2019-03-10T11:13:50.231Z,99.84
2019-03-10T11:17:05.334Z,100.90
2019-03-10T11:20:16.239Z,101.17
2019-03-10T11:23:37.017Z,100.17
2019-03-10T11:26:52.572Z,99.29
2019-03-10T11:30:32.109Z,98.04
2019-03-10T11:33:55.490Z,101.44
2019-03-10T11:37:18.635Z,103.65
2019-03-10T11:40:41.695Z,103.88
2019-03-10T11:44:04.470Z,102.01
2019-03-10T11:47:28.612Z,102.39
2019-03-10T11:50:46.944Z,103.31
2019-03-10T11:54:11.213Z,102.78
2019-03-10T11:57:24.747Z,103.99
2019-03-10T12:00:48.882Z,105.41
2019-03-10T12:04:11.936Z,105.78
2019-03-10T12:07:38.373Z,105.16
2019-03-10T12:10:43.719Z,106.21
2019-03-10T12:13:49.031Z,106.67
2019-03-10T12:16:54.329Z,106.80
2019-03-10T12:19:59.569Z,107.00
2019-03-10T12:23:04.898Z,107.29
2019-03-10T12:26:10.209Z,106.55
2019-03-10T12:29:15.659Z,106.16
2019-03-10T12:32:20.924Z,106.18
2019-03-10T12:35:33.881Z,106.13
2019-03-10T12:38:33.153Z,106.59
2019-03-10T12:41:38.856Z,106.66
2019-03-10T12:44:47.168Z,106.78
2019-03-10T12:47:52.514Z,106.21
2019-03-10T12:50:57.757Z,105.94
2019-03-10T12:54:03.071Z,106.23
2019-03-10T12:57:08.434Z,106.45
2019-03-10T13:00:13.974Z,106.09
2019-03-10T13:03:21.291Z,105.17
2019-03-10T13:06:26.562Z,106.42
2019-03-10T13:09:31.890Z,107.54
2019-03-10T13:12:37.202Z,107.67
2019-03-10T13:15:42.483Z,107.70
2019-03-10T13:18:47.762Z,108.31
2019-03-10T13:21:53.016Z,108.73
2019-03-10T13:24:58.327Z,108.98
2019-03-10T13:28:03.770Z,109.25
2019-03-10T13:31:11.172Z,109.31
2019-03-10T13:34:16.519Z,108.99
2019-03-10T13:37:21.834Z,107.87
2019-03-10T13:40:27.213Z,107.22
2019-03-10T13:43:32.543Z,107.76
2019-03-10T13:46:37.802Z,107.88
2019-03-10T13:49:43.125Z,108.18
2019-03-10T13:52:49.375Z,105.69
2019-03-10T13:55:54.594Z,105.64
2019-03-10T13:59:00.062Z,106.92
2019-03-10T14:02:05.407Z,107.54
2019-03-10T14:05:10.884Z,107.28
2019-03-10T14:08:16.217Z,106.93
2019-03-10T14:11:21.533Z,107.70
2019-03-10T14:14:26.833Z,107.52
2019-03-10T14:17:32.118Z,107.09
2019-03-10T14:20:37.434Z,107.27
2019-03-10T14:23:42.702Z,106.80
2019-03-10T14:26:47.953Z,107.40
2019-03-10T14:29:53.261Z,107.72
2019-03-10T14:32:58.647Z,107.82
2019-03-10T14:36:05.429Z,107.47
2019-03-10T14:39:10.783Z,106.80
2019-03-10T14:42:16.219Z,107.99
2019-03-10T14:45:21.636Z,108.41
2019-03-10T14:48:26.944Z,108.88
2019-03-10T14:51:32.287Z,108.81
2019-03-10T14:54:37.545Z,109.06
2019-03-10T14:57:42.822Z,109.34
2019-03-10T15:00:49.161Z,109.44
2019-03-10T15:03:54.543Z,109.86
2019-03-10T15:06:59.859Z,109.42
2019-03-10T15:10:05.712Z,109.84
2019-03-10T15:13:11.335Z,108.93
2019-03-10T15:16:16.780Z,108.90
2019-03-10T15:19:22.190Z,109.55
2019-03-10T15:22:29.054Z,110.06
2019-03-10T15:25:34.478Z,109.42
2019-03-10T15:28:41.132Z,110.35
2019-03-10T15:31:46.467Z,110.74
2019-03-10T15:34:53.282Z,110.93
2019-03-10T15:37:58.651Z,110.79
2019-03-10T15:41:03.962Z,111.27
2019-03-10T15:44:09.411Z,111.03
2019-03-10T15:47:14.751Z,111.20
2019-03-10T15:50:23.358Z,111.12
2019-03-10T15:53:32.291Z,110.95
2019-03-10T15:56:41.257Z,110.89
2019-03-10T15:59:46.632Z,111.24
2019-03-10T16:02:54.245Z,110.91
2019-03-10T16:05:59.547Z,110.71
2019-03-10T16:09:05.342Z,110.52
2019-03-10T16:12:11.472Z,110.47
2019-03-10T16:15:16.788Z,110.31
2019-03-10T16:18:22.068Z,109.90
2019-03-10T16:21:27.409Z,110.33
2019-03-10T16:24:32.663Z,109.70
2019-03-10T16:27:38.001Z,110.32
2019-03-10T16:30:43.472Z,110.59
2019-03-10T16:33:48.833Z,110.99
2019-03-10T16:36:54.090Z,111.89
2019-03-10T16:39:59.414Z,111.76
2019-03-10T16:43:04.718Z,111.99
2019-03-10T16:46:10.068Z,112.59
2019-03-10T16:49:15.428Z,112.74
2019-03-10T16:52:20.691Z,113.80
2019-03-10T16:55:45.536Z,114.69
2019-03-10T16:58:52.172Z,114.92
2019-03-10T17:01:57.459Z,115.16
2019-03-10T17:05:06.210Z,114.77
2019-03-10T17:08:11.662Z,115.47
2019-03-10T17:11:16.920Z,115.30
2019-03-10T17:14:22.202Z,115.52
2019-03-10T17:17:27.503Z,116.19
2019-03-10T17:20:32.873Z,116.54
2019-03-10T17:23:38.178Z,116.58
2019-03-10T17:26:43.493Z,116.47
2019-03-10T17:29:48.785Z,116.80
2019-03-10T17:32:54.153Z,116.98
2019-03-10T17:35:59.464Z,116.90
2019-03-10T17:39:06.143Z,116.94
2019-03-10T17:42:12.103Z,117.26
2019-03-10T17:45:17.987Z,116.88
2019-03-10T17:48:23.383Z,117.10
2019-03-10T17:51:28.809Z,118.06
2019-03-10T17:54:34.133Z,118.03
2019-03-10T17:57:41.922Z,118.20
2019-03-10T18:00:47.434Z,118.04
2019-03-10T18:03:52.876Z,118.52
2019-03-10T18:06:58.201Z,118.41
2019-03-10T18:10:03.503Z,118.63
2019-03-10T18:13:08.856Z,118.80
2019-03-10T18:16:14.231Z,118.86
2019-03-10T18:19:19.536Z,118.84
2019-03-10T18:22:24.959Z,118.72
2019-03-10T18:25:30.347Z,118.39
2019-03-10T18:28:35.663Z,118.37
2019-03-10T18:31:40.994Z,118.65
2019-03-10T18:34:46.257Z,118.81
2019-03-10T18:37:51.541Z,118.59
2019-03-10T18:40:56.850Z,118.32
2019-03-10T18:44:02.107Z,118.25
2019-03-10T18:47:08.512Z,118.28
2019-03-10T18:50:16.258Z,118.46
2019-03-10T18:53:21.522Z,117.94
2019-03-10T18:56:28.655Z,118.29
2019-03-10T18:59:33.991Z,117.77
2019-03-10T19:02:39.339Z,117.58
2019-03-10T19:05:45.684Z,116.83
2019-03-10T19:08:51.167Z,116.02
2019-03-10T19:11:56.465Z,115.96
2019-03-10T19:15:01.783Z,115.91
2019-03-10T19:18:08.425Z,115.88
2019-03-10T19:21:13.778Z,115.78
2019-03-10T19:24:19.055Z,116.15
2019-03-10T19:27:30.278Z,116.40
2019-03-10T19:30:31.422Z,116.54
2019-03-10T19:33:36.786Z,116.56
2019-03-10T19:36:42.081Z,116.88
2019-03-10T19:39:47.445Z,116.99
2019-03-10T19:42:54.637Z,117.32
2019-03-10T19:45:59.946Z,117.47
2019-03-10T19:49:06.547Z,117.51
2019-03-10T19:52:11.809Z,117.58
2019-03-10T19:55:17.101Z,117.58
2019-03-10T19:58:22.386Z,117.39
2019-03-10T20:01:27.641Z,117.58
2019-03-10T20:04:32.947Z,117.56
2019-03-10T20:07:38.289Z,117.52
2019-03-10T20:10:43.630Z,117.36
2019-03-10T20:13:48.881Z,117.58
2019-03-10T20:16:54.138Z,117.43
2019-03-10T20:20:00.423Z,117.44
2019-03-10T20:23:05.755Z,117.64
2019-03-10T20:26:11.005Z,117.71
2019-03-10T20:29:16.291Z,117.84
2019-03-10T20:32:21.615Z,117.84
2019-03-10T20:35:26.949Z,117.86
2019-03-10T20:38:32.291Z,117.88
2019-03-10T20:41:44.587Z,117.78
2019-03-10T20:44:44.567Z,117.69
2019-03-10T20:47:49.884Z,118.02
2019-03-10T20:50:55.183Z,117.70
2019-03-10T20:54:00.501Z,117.74
2019-03-10T20:57:05.795Z,118.01
2019-03-10T21:00:16.611Z,117.95
2019-03-10T21:03:23.431Z,117.97
2019-03-10T21:06:28.660Z,118.07
2019-03-10T21:09:33.973Z,118.09
2019-03-10T21:12:40.739Z,117.85
2019-03-10T21:15:46.407Z,117.79
2019-03-10T21:18:51.815Z,117.81
2019-03-10T21:21:57.115Z,118.07
2019-03-10T21:25:02.497Z,118.24
2019-03-10T21:28:07.760Z,117.80
2019-03-10T21:31:13.045Z,117.87
2019-03-10T21:34:19.662Z,118.15
2019-03-10T21:37:24.955Z,118.02
2019-03-10T21:40:30.285Z,118.08
2019-03-10T21:43:36.607Z,117.81
2019-03-10T21:46:41.960Z,118.00
2019-03-10T21:49:47.267Z,117.62
2019-03-10T21:52:52.547Z,117.36
2019-03-10T21:55:57.761Z,117.34
2019-03-10T21:59:03.070Z,116.91
2019-03-10T22:02:08.291Z,116.86
2019-03-10T22:05:13.814Z,116.14
2019-03-10T22:08:19.173Z,116.22
2019-03-10T22:11:24.384Z,116.02
2019-03-10T22:14:29.676Z,116.04
2019-03-10T22:17:34.955Z,116.11
2019-03-10T22:20:40.264Z,116.11
2019-03-10T22:23:46.528Z,116.20
2019-03-10T22:26:51.926Z,116.09
2019-03-10T22:29:57.939Z,116.30
2019-03-10T22:33:03.389Z,116.09
2019-03-10T22:36:08.637Z,116.20
2019-03-10T22:39:13.948Z,116.31
2019-03-10T22:42:19.209Z,116.30
2019-03-10T22:45:24.471Z,116.39
2019-03-10T22:48:29.694Z,116.29
2019-03-10T22:51:34.951Z,116.32
2019-03-10T22:54:40.200Z,116.36
2019-03-10T22:57:45.662Z,116.39
2019-03-10T23:00:52.505Z,116.06
2019-03-10T23:03:58.148Z,115.99
2019-03-10T23:07:03.480Z,115.85
2019-03-10T23:10:09.541Z,115.66
2019-03-10T23:13:14.909Z,115.40
2019-03-10T23:16:20.190Z,115.44
2019-03-10T23:19:25.604Z,115.22
2019-03-10T23:22:30.966Z,115.23
2019-03-10T23:25:36.159Z,115.33
2019-03-10T23:28:41.574Z,115.36
2019-03-10T23:31:46.805Z,115.18
2019-03-10T23:34:54.915Z,115.24
2019-03-10T23:38:02.492Z,115.06
2019-03-10T23:41:07.796Z,114.65
2019-03-10T23:44:13.069Z,113.82
2019-03-10T23:47:18.344Z,113.72
2019-03-10T23:50:24.552Z,113.69
2019-03-10T23:53:29.874Z,113.95
2019-03-10T23:56:35.194Z,113.95
2019-03-10T23:59:40.451Z,113.94
